Time;durP1;ratioP1;P1;durP2;ratioP2;P2;SDS_P1;SDS_P2;PMS_P1;PMS_P2;Temp;Humidity;BMP_temperature;BMP_pressure;BME280_temperature;BME280_humidity;BME280_pressure;Samples;Min_cycle;Max_cycle;Signal;HPM_P1;HPM_P2
2023/06/24 00:02:08;;;;;;;8.13;4.50;;;28.20;99.90;;;;;;5071257;28;20382;-60
2023/06/24 00:04:34;;;;;;;4.78;4.38;;;28.20;99.90;;;;;;5072659;28;20024;-60
2023/06/24 00:07:00;;;;;;;4.30;3.70;;;28.10;99.90;;;;;;5075351;28;20330;-60
2023/06/24 00:09:27;;;;;;;4.65;4.15;;;28.30;99.90;;;;;;5073450;28;20131;-60
2023/06/24 00:11:54;;;;;;;4.38;3.58;;;28.20;99.90;;;;;;5075351;28;20138;-60
2023/06/24 00:14:21;;;;;;;8.20;3.67;;;28.30;99.90;;;;;;5074148;28;20030;-60
2023/06/24 00:16:51;;;;;;;6.03;4.13;;;28.20;99.90;;;;;;5073977;28;20540;-60
2023/06/24 00:19:19;;;;;;;5.35;4.13;;;28.10;99.90;;;;;;5073129;28;20020;-60
2023/06/24 00:21:45;;;;;;;6.63;4.05;;;28.00;99.90;;;;;;5075189;28;20033;-60
2023/06/24 00:24:11;;;;;;;4.95;3.95;;;28.20;99.90;;;;;;5072662;28;20079;-60
2023/06/24 00:26:36;;;;;;;6.38;4.28;;;28.30;99.90;;;;;;5074055;28;20028;-60
2023/06/24 00:29:02;;;;;;;5.78;4.05;;;28.40;99.90;;;;;;5070762;28;20056;-61
2023/06/24 00:31:28;;;;;;;5.63;3.97;;;28.00;99.90;;;;;;5073609;28;20017;-60
2023/06/24 00:33:53;;;;;;;6.13;2.92;;;28.10;99.90;;;;;;5075020;28;20020;-60
2023/06/24 00:36:20;;;;;;;4.90;3.60;;;28.00;99.90;;;;;;5070279;28;20497;-60
2023/06/24 00:38:48;;;;;;;6.53;4.65;;;28.10;99.90;;;;;;5074892;28;20028;-60
2023/06/24 00:41:15;;;;;;;5.85;3.97;;;28.00;99.90;;;;;;5073945;28;20118;-60
2023/06/24 00:43:41;;;;;;;7.43;4.57;;;28.00;99.90;;;;;;5073887;28;20579;-60
2023/06/24 00:46:07;;;;;;;6.57;3.80;;;28.00;99.90;;;;;;5074697;28;20024;-60
2023/06/24 00:48:32;;;;;;;6.03;4.13;;;28.00;99.90;;;;;;5073852;28;20036;-60
2023/06/24 00:51:07;;;;;;;6.90;4.07;;;28.10;99.90;;;;;;5071228;28;20029;-60
2023/06/24 00:53:33;;;;;;;3.50;3.20;;;28.10;99.90;;;;;;5074547;28;20111;-60
2023/06/24 00:56:02;;;;;;;4.82;3.83;;;27.70;99.90;;;;;;5072783;28;20534;-60
2023/06/24 00:58:32;;;;;;;4.25;3.55;;;27.70;99.90;;;;;;5070630;28;20024;-60
2023/06/24 01:00:58;;;;;;;4.20;3.80;;;27.60;99.90;;;;;;5072479;28;20367;-60
2023/06/24 01:03:28;;;;;;;4.95;3.60;;;27.60;99.90;;;;;;5074294;28;20036;-60
2023/06/24 01:05:54;;;;;;;3.60;3.28;;;27.60;99.90;;;;;;5072656;28;20016;-60
2023/06/24 01:08:22;;;;;;;5.80;3.25;;;27.60;99.90;;;;;;5072334;28;20033;-60
2023/06/24 01:10:51;;;;;;;4.82;3.72;;;27.50;99.90;;;;;;5071926;28;20063;-60
2023/06/24 01:13:17;;;;;;;3.80;3.20;;;27.40;99.90;;;;;;5072384;28;20020;-60
2023/06/24 01:15:44;;;;;;;3.88;3.45;;;27.30;99.90;;;;;;5073432;28;20521;-60
2023/06/24 01:18:10;;;;;;;8.20;3.80;;;27.30;99.90;;;;;;5071664;28;20082;-60
2023/06/24 01:20:54;;;;;;;3.90;3.28;;;27.20;99.90;;;;;;5073545;28;20033;-60
2023/06/24 01:23:31;;;;;;;;;;;27.20;99.90;;;;;;5069078;28;20470;-60
2023/06/24 01:26:20;;;;;;;4.40;3.80;;;27.20;99.90;;;;;;5070366;28;20314;-60
2023/06/24 01:28:48;;;;;;;6.78;3.63;;;27.20;99.90;;;;;;5070276;28;20456;-60
2023/06/24 01:31:34;;;;;;;5.63;3.60;;;27.10;99.90;;;;;;5067139;28;20052;-60
2023/06/24 01:34:17;;;;;;;6.50;3.50;;;27.10;99.90;;;;;;5060268;28;20557;-60
2023/06/24 01:36:52;;;;;;;7.28;4.10;;;27.20;99.90;;;;;;5054708;28;20063;-60
2023/06/24 01:39:19;;;;;;;6.55;3.58;;;27.10;99.90;;;;;;5070844;28;20466;-60
2023/06/24 01:42:00;;;;;;;4.47;3.35;;;27.10;99.90;;;;;;5072330;28;20027;-60
2023/06/24 01:44:28;;;;;;;6.68;3.88;;;26.90;99.90;;;;;;5072507;28;20429;-59
2023/06/24 01:46:57;;;;;;;4.25;3.50;;;27.10;99.90;;;;;;5073421;28;20028;-59
2023/06/24 01:49:25;;;;;;;5.47;3.60;;;27.00;99.90;;;;;;5073105;28;20089;-60
2023/06/24 01:51:51;;;;;;;6.03;3.80;;;26.90;99.90;;;;;;5073427;28;20021;-60
2023/06/24 01:54:20;;;;;;;6.70;3.95;;;26.90;99.90;;;;;;5072446;28;20048;-60
2023/06/24 01:56:48;;;;;;;4.25;3.45;;;26.80;99.90;;;;;;5066836;28;20041;-60
2023/06/24 01:59:16;;;;;;;5.30;3.45;;;26.80;99.90;;;;;;5072332;28;20077;-60
2023/06/24 02:01:43;;;;;;;3.63;3.33;;;26.90;99.90;;;;;;5073423;28;20062;-60
2023/06/24 02:04:10;;;;;;;6.15;3.72;;;26.60;99.90;;;;;;5072082;28;20024;-60
2023/06/24 02:06:37;;;;;;;4.25;3.35;;;26.70;99.90;;;;;;5073329;28;20024;-60
2023/06/24 02:09:04;;;;;;;4.22;3.15;;;26.70;99.90;;;;;;5071295;28;20025;-60
2023/06/24 02:11:32;;;;;;;3.95;3.65;;;26.70;99.90;;;;;;5073516;28;20030;-59
2023/06/24 02:14:00;;;;;;;4.95;3.15;;;26.80;99.90;;;;;;5070534;28;20443;-59
2023/06/24 02:16:29;;;;;;;5.80;3.97;;;26.70;99.90;;;;;;5073138;28;20389;-59
2023/06/24 02:18:56;;;;;;;3.67;3.17;;;26.80;99.90;;;;;;5071933;28;20025;-59
2023/06/24 02:21:24;;;;;;;4.35;3.95;;;26.80;99.90;;;;;;5062880;28;20045;-59
2023/06/24 02:23:51;;;;;;;5.50;3.80;;;26.80;99.90;;;;;;5061892;28;20078;-59
2023/06/24 02:26:18;;;;;;;4.40;4.00;;;26.70;99.90;;;;;;5071208;28;20025;-59
2023/06/24 02:28:48;;;;;;;3.58;3.28;;;26.60;99.90;;;;;;5072756;28;20048;-59
2023/06/24 02:31:15;;;;;;;3.72;3.38;;;26.40;99.90;;;;;;5055682;28;20037;-60
2023/06/24 02:33:41;;;;;;;4.03;3.40;;;26.60;99.90;;;;;;5072058;28;20086;-59
2023/06/24 02:36:06;;;;;;;3.25;2.95;;;26.50;99.90;;;;;;5070804;28;20035;-59
2023/06/24 02:38:32;;;;;;;3.78;3.47;;;26.50;99.90;;;;;;5071670;28;20016;-60
2023/06/24 02:40:58;;;;;;;5.45;3.15;;;26.50;99.90;;;;;;5071977;28;20037;-60
2023/06/24 02:43:24;;;;;;;5.05;3.33;;;26.60;99.90;;;;;;5058667;28;20103;-60
2023/06/24 02:45:50;;;;;;;5.95;3.78;;;26.60;99.90;;;;;;5069994;28;20035;-59
2023/06/24 02:48:17;;;;;;;3.65;3.28;;;26.50;99.90;;;;;;5066215;28;20021;-60
2023/06/24 02:50:44;;;;;;;3.83;3.45;;;26.50;99.90;;;;;;5062540;28;20047;-60
2023/06/24 02:53:14;;;;;;;4.57;2.80;;;26.60;99.90;;;;;;5072766;28;20020;-60
2023/06/24 02:55:42;;;;;;;4.60;3.47;;;26.50;99.90;;;;;;5071755;28;20415;-60
2023/06/24 02:58:09;;;;;;;3.97;3.58;;;26.40;99.90;;;;;;5070426;28;20020;-59
2023/06/24 03:00:36;;;;;;;5.78;3.38;;;26.50;99.90;;;;;;5072950;28;20052;-59
2023/06/24 03:03:03;;;;;;;4.32;3.50;;;26.40;99.90;;;;;;5068979;28;20462;-59
2023/06/24 03:06:17;;;;;;;3.58;3.28;;;26.30;99.90;;;;;;5072712;28;20029;-59
2023/06/24 03:08:43;;;;;;;7.03;3.33;;;26.40;99.90;;;;;;5071159;28;20062;-59
2023/06/24 03:11:13;;;;;;;4.25;3.17;;;26.30;99.90;;;;;;5072073;28;20036;-59
2023/06/24 03:13:39;;;;;;;4.25;3.75;;;26.30;99.90;;;;;;5072007;28;20111;-59
2023/06/24 03:16:05;;;;;;;6.30;3.45;;;26.20;99.90;;;;;;5071632;28;20195;-59
2023/06/24 03:18:31;;;;;;;3.72;3.38;;;26.30;99.90;;;;;;5071760;28;20082;-59
2023/06/24 03:20:57;;;;;;;4.85;3.35;;;26.20;99.90;;;;;;5072718;28;20037;-59
2023/06/24 03:23:22;;;;;;;5.65;3.42;;;26.30;99.90;;;;;;5058237;28;20043;-59
2023/06/24 03:25:48;;;;;;;6.30;3.70;;;26.30;99.90;;;;;;5069498;28;20100;-59
2023/06/24 03:28:14;;;;;;;5.07;3.35;;;26.40;99.90;;;;;;5071444;28;20048;-59
2023/06/24 03:30:40;;;;;;;3.17;2.90;;;26.30;99.90;;;;;;5072308;28;20490;-59
2023/06/24 03:33:05;;;;;;;4.35;3.60;;;26.30;99.90;;;;;;5071334;28;20028;-59
2023/06/24 03:35:32;;;;;;;5.25;3.28;;;26.40;99.90;;;;;;5062008;28;20382;-60
2023/06/24 03:37:58;;;;;;;7.20;3.60;;;26.30;99.90;;;;;;5073891;28;20107;-59
2023/06/24 03:40:24;;;;;;;4.70;3.42;;;26.30;99.90;;;;;;5076020;28;20036;-58
2023/06/24 03:42:49;;;;;;;4.05;3.35;;;26.30;99.90;;;;;;5074851;28;20070;-59
2023/06/24 03:45:15;;;;;;;3.72;3.30;;;26.40;99.90;;;;;;5076301;28;20047;-59
2023/06/24 03:47:41;;;;;;;3.92;3.25;;;26.30;99.90;;;;;;5074506;28;20036;-59
2023/06/24 03:50:07;;;;;;;3.90;3.53;;;26.40;99.90;;;;;;5075641;28;20036;-59
2023/06/24 03:52:32;;;;;;;5.68;3.53;;;26.30;99.90;;;;;;5074244;28;20039;-59
2023/06/24 03:54:58;;;;;;;4.35;3.90;;;26.20;99.90;;;;;;5075750;28;20389;-59
2023/06/24 03:57:24;;;;;;;4.32;3.78;;;26.20;99.90;;;;;;5074825;28;20027;-59
2023/06/24 03:59:49;;;;;;;4.85;3.20;;;26.20;99.90;;;;;;5075772;28;20036;-59
2023/06/24 04:02:15;;;;;;;4.32;3.00;;;26.20;99.90;;;;;;5071679;28;20048;-59
2023/06/24 04:04:41;;;;;;;3.72;3.42;;;26.20;99.90;;;;;;5070846;28;20112;-59
2023/06/24 04:07:06;;;;;;;6.05;3.17;;;26.20;99.90;;;;;;5072294;28;20033;-59
2023/06/24 04:09:35;;;;;;;4.97;2.88;;;26.30;99.90;;;;;;5075410;28;20040;-59
2023/06/24 04:12:01;;;;;;;3.63;3.30;;;26.20;99.90;;;;;;5073634;28;20060;-59
2023/06/24 04:14:28;;;;;;;4.00;3.10;;;26.20;99.90;;;;;;5075494;28;20024;-59
2023/06/24 04:16:54;;;;;;;4.43;3.33;;;26.20;99.90;;;;;;5073021;28;20078;-59
2023/06/24 04:19:19;;;;;;;4.72;3.25;;;26.20;99.90;;;;;;5075380;28;20473;-60
2023/06/24 04:21:45;;;;;;;5.10;3.05;;;26.20;99.90;;;;;;5074108;28;20028;-60
2023/06/24 04:24:11;;;;;;;4.68;3.55;;;26.20;99.90;;;;;;5073352;28;20036;-60
2023/06/24 04:26:36;;;;;;;5.07;3.10;;;26.20;99.90;;;;;;5074103;28;20027;-60
2023/06/24 04:29:02;;;;;;;5.25;3.15;;;26.10;99.90;;;;;;5074905;28;20040;-60
2023/06/24 04:31:28;;;;;;;4.47;3.15;;;26.20;99.90;;;;;;5074341;28;20028;-60
2023/06/24 04:33:54;;;;;;;3.58;3.22;;;26.20;99.90;;;;;;5074848;28;20024;-60
2023/06/24 04:36:19;;;;;;;4.90;3.30;;;26.20;99.90;;;;;;5071849;28;20036;-60
2023/06/24 04:38:45;;;;;;;5.80;3.30;;;26.30;99.90;;;;;;5107717;28;20075;-60
2023/06/24 04:41:11;;;;;;;9.30;3.63;;;26.30;99.90;;;;;;5073773;28;20043;-59
2023/06/24 04:43:36;;;;;;;4.80;3.13;;;26.30;99.90;;;;;;5073386;28;20363;-60
2023/06/24 04:46:02;;;;;;;4.10;3.45;;;26.30;99.90;;;;;;5071490;28;20397;-60
2023/06/24 04:48:28;;;;;;;3.47;3.13;;;26.40;99.90;;;;;;5073879;28;20031;-60
2023/06/24 04:50:54;;;;;;;4.43;3.53;;;26.30;99.90;;;;;;5074052;28;20040;-59
2023/06/24 04:53:20;;;;;;;4.50;3.33;;;26.40;99.90;;;;;;5056760;28;20028;-59
2023/06/24 04:55:46;;;;;;;4.60;3.35;;;26.50;99.90;;;;;;5067200;28;20027;-60
2023/06/24 04:58:12;;;;;;;5.50;3.17;;;26.30;99.90;;;;;;5074620;28;20025;-60
2023/06/24 05:00:38;;;;;;;4.88;3.42;;;26.40;99.90;;;;;;5072304;28;20044;-60
2023/06/24 05:03:04;;;;;;;8.45;3.38;;;26.50;99.90;;;;;;5074366;28;20074;-60
2023/06/24 05:05:30;;;;;;;6.65;3.60;;;26.50;99.90;;;;;;5074755;28;20103;-59
2023/06/24 05:07:56;;;;;;;6.00;2.95;;;26.50;99.90;;;;;;5070655;28;20112;-59
2023/06/24 05:10:21;;;;;;;6.88;3.53;;;26.50;99.90;;;;;;5094691;28;20028;-59
2023/06/24 05:12:47;;;;;;;4.05;3.38;;;26.50;99.90;;;;;;5071944;28;20032;-60
2023/06/24 05:15:13;;;;;;;3.58;3.28;;;26.60;99.90;;;;;;5074238;28;20515;-59
2023/06/24 05:17:39;;;;;;;6.35;3.65;;;26.60;99.90;;;;;;5071271;28;20082;-59
2023/06/24 05:20:06;;;;;;;5.90;3.67;;;26.70;99.90;;;;;;5074319;28;20028;-59
2023/06/24 05:22:31;;;;;;;5.15;3.50;;;26.70;99.90;;;;;;5070991;28;20467;-59
2023/06/24 05:24:57;;;;;;;5.47;3.63;;;26.70;99.90;;;;;;5059935;28;20040;-59
2023/06/24 05:27:23;;;;;;;5.10;3.60;;;26.70;99.90;;;;;;5071584;28;20119;-59
2023/06/24 05:29:48;;;;;;;4.05;3.63;;;26.70;99.90;;;;;;5073180;28;20048;-59
2023/06/24 05:32:14;;;;;;;8.40;3.60;;;26.80;99.90;;;;;;5073880;28;20043;-59
2023/06/24 05:34:40;;;;;;;7.45;3.38;;;26.70;99.90;;;;;;5073010;28;20025;-59
2023/06/24 05:37:05;;;;;;;4.38;3.20;;;26.70;99.90;;;;;;5070774;28;20049;-59
2023/06/24 05:39:31;;;;;;;7.82;3.63;;;26.80;99.90;;;;;;5073672;28;20071;-59
2023/06/24 05:41:57;;;;;;;4.20;3.10;;;26.80;99.90;;;;;;5070535;28;20424;-59
2023/06/24 05:44:23;;;;;;;4.80;3.58;;;26.80;99.90;;;;;;5073990;28;20131;-59
2023/06/24 05:46:49;;;;;;;5.53;3.45;;;26.80;99.90;;;;;;5070468;28;20032;-59
2023/06/24 05:49:14;;;;;;;5.03;3.33;;;26.80;99.90;;;;;;5073505;28;20064;-59
2023/06/24 05:51:40;;;;;;;5.00;3.40;;;26.80;99.90;;;;;;5072489;28;20055;-59
2023/06/24 05:54:07;;;;;;;4.55;3.22;;;26.80;99.90;;;;;;5072551;28;20036;-59
2023/06/24 05:56:33;;;;;;;5.50;3.05;;;26.90;99.90;;;;;;5069577;28;20394;-59
2023/06/24 05:58:59;;;;;;;4.47;3.75;;;26.90;99.90;;;;;;5073719;28;20124;-59
2023/06/24 06:01:28;;;;;;;5.90;3.45;;;26.90;99.90;;;;;;5072463;28;20107;-59
2023/06/24 06:03:53;;;;;;;4.25;3.28;;;26.90;99.90;;;;;;5073326;28;20029;-59
2023/06/24 06:06:19;;;;;;;4.78;3.42;;;27.00;99.90;;;;;;5072555;28;20174;-59
2023/06/24 06:08:44;;;;;;;4.95;3.33;;;27.00;99.90;;;;;;5073148;28;20036;-59
2023/06/24 06:11:10;;;;;;;4.25;3.25;;;27.00;99.90;;;;;;5071884;28;20107;-59
2023/06/24 06:13:36;;;;;;;5.25;3.10;;;27.00;99.90;;;;;;5072136;28;20035;-59
2023/06/24 06:16:01;;;;;;;4.95;3.35;;;27.10;99.90;;;;;;5071219;28;20028;-59
2023/06/24 06:18:27;;;;;;;5.47;3.55;;;27.10;99.90;;;;;;5058642;28;20032;-60
2023/06/24 06:20:53;;;;;;;4.32;3.92;;;27.10;99.90;;;;;;5057345;28;20665;-60
2023/06/24 06:23:18;;;;;;;5.63;3.40;;;27.00;99.90;;;;;;5071998;28;20543;-60
2023/06/24 06:25:44;;;;;;;5.07;3.78;;;27.10;99.90;;;;;;5070394;28;20032;-60
2023/06/24 06:28:10;;;;;;;3.85;3.45;;;27.20;99.90;;;;;;5058664;28;20052;-60
2023/06/24 06:30:35;;;;;;;3.83;3.42;;;27.10;99.90;;;;;;5072481;28;20036;-60
2023/06/24 06:33:01;;;;;;;4.15;3.75;;;27.10;99.90;;;;;;5072939;28;20080;-60
2023/06/24 06:35:27;;;;;;;4.72;3.08;;;27.20;99.90;;;;;;5070229;28;20053;-60
2023/06/24 06:37:54;;;;;;;8.13;4.10;;;27.30;99.90;;;;;;5071214;28;20036;-60
2023/06/24 06:40:20;;;;;;;11.25;4.05;;;27.30;99.90;;;;;;5073101;28;20103;-60
2023/06/24 06:42:47;;;;;;;17.02;5.05;;;27.40;99.90;;;;;;5068314;28;20033;-60
2023/06/24 06:45:13;;;;;;;12.98;4.43;;;27.40;99.90;;;;;;5072833;28;20532;-60
2023/06/24 06:47:38;;;;;;;5.35;4.07;;;27.40;99.90;;;;;;5070940;28;20028;-65
2023/06/24 06:50:04;;;;;;;5.45;3.67;;;27.50;99.90;;;;;;5065486;28;20025;-63
2023/06/24 06:52:30;;;;;;;6.03;4.40;;;27.50;99.90;;;;;;5072153;28;20021;-63
2023/06/24 06:54:56;;;;;;;4.80;4.35;;;27.60;99.90;;;;;;5072797;28;20089;-63
2023/06/24 06:57:22;;;;;;;7.35;3.92;;;27.60;99.90;;;;;;5069647;28;20021;-63
2023/06/24 06:59:50;;;;;;;6.57;3.92;;;27.70;99.90;;;;;;5071333;28;20027;-62
2023/06/24 07:02:16;;;;;;;6.60;4.10;;;27.70;99.90;;;;;;5072971;28;20028;-62
2023/06/24 07:04:42;;;;;;;7.55;4.03;;;27.70;99.90;;;;;;5067730;28;20038;-62
2023/06/24 07:07:08;;;;;;;6.90;4.07;;;27.80;99.90;;;;;;5070646;28;20130;-62
2023/06/24 07:09:34;;;;;;;8.88;4.10;;;27.80;99.90;;;;;;5075237;28;20055;-62
2023/06/24 07:12:00;;;;;;;7.18;4.50;;;27.80;99.90;;;;;;5074035;28;20016;-62
2023/06/24 07:14:26;;;;;;;6.13;3.38;;;27.90;99.90;;;;;;5077003;28;20035;-62
2023/06/24 07:16:51;;;;;;;7.82;4.22;;;27.90;99.90;;;;;;5075432;28;20047;-62
2023/06/24 07:19:17;;;;;;;4.32;3.80;;;28.00;99.90;;;;;;5076775;28;20062;-62
2023/06/24 07:21:43;;;;;;;7.55;4.30;;;28.00;99.90;;;;;;5071876;28;20492;-62
2023/06/24 07:24:08;;;;;;;6.63;3.72;;;28.00;99.90;;;;;;5075079;28;20074;-61
2023/06/24 07:26:34;;;;;;;6.50;4.55;;;28.00;99.90;;;;;;5061480;28;20025;-57
2023/06/24 07:29:00;;;;;;;5.97;4.10;;;28.00;99.90;;;;;;5071962;28;20054;-62
2023/06/24 07:31:26;;;;;;;10.10;4.22;;;28.10;99.90;;;;;;5074599;28;20029;-61
2023/06/24 07:33:51;;;;;;;7.22;3.90;;;28.10;99.90;;;;;;5072988;28;20029;-62
2023/06/24 07:36:17;;;;;;;9.15;4.32;;;28.10;99.90;;;;;;5070859;28;20032;-61
2023/06/24 07:38:43;;;;;;;9.85;4.03;;;28.20;99.90;;;;;;5075982;28;20029;-62
2023/06/24 07:41:09;;;;;;;7.43;4.50;;;28.20;99.90;;;;;;5075166;28;20098;-62
2023/06/24 07:43:34;;;;;;;7.05;4.35;;;28.20;99.90;;;;;;5074404;28;20029;-60
2023/06/24 07:46:00;;;;;;;6.28;4.63;;;28.20;99.90;;;;;;5073532;28;20036;-60
2023/06/24 07:48:26;;;;;;;6.05;4.00;;;28.30;99.90;;;;;;5075766;28;20029;-60
2023/06/24 07:50:51;;;;;;;6.03;3.85;;;28.30;99.90;;;;;;5055335;28;20162;-60
2023/06/24 07:53:17;;;;;;;4.53;4.10;;;28.30;99.90;;;;;;5075290;28;20020;-60
2023/06/24 07:55:43;;;;;;;6.65;4.32;;;28.30;99.90;;;;;;5075985;28;20036;-60
2023/06/24 07:58:08;;;;;;;7.30;4.72;;;28.30;99.90;;;;;;5072539;28;20098;-60
2023/06/24 08:00:34;;;;;;;6.30;4.25;;;28.40;99.90;;;;;;5075759;28;20535;-60
2023/06/24 08:03:00;;;;;;;8.07;4.97;;;28.30;99.90;;;;;;5074568;28;20032;-60
2023/06/24 08:05:26;;;;;;;6.95;4.88;;;28.30;99.90;;;;;;5067519;28;20032;-60
2023/06/24 08:07:52;;;;;;;9.88;4.85;;;28.40;99.90;;;;;;5075416;28;20495;-60
2023/06/24 08:10:18;;;;;;;11.27;5.13;;;28.50;99.90;;;;;;5073953;28;20040;-60
2023/06/24 08:12:43;;;;;;;5.07;4.40;;;28.50;99.90;;;;;;5074918;28;20031;-60
2023/06/24 08:15:10;;;;;;;6.72;4.55;;;28.50;99.90;;;;;;5063651;28;20054;-59
2023/06/24 08:17:36;;;;;;;8.52;4.72;;;28.50;99.90;;;;;;5071324;28;20044;-60
2023/06/24 08:20:03;;;;;;;10.60;5.00;;;28.60;99.90;;;;;;5073191;28;20059;-60
2023/06/24 08:22:28;;;;;;;6.35;4.70;;;28.60;99.90;;;;;;5075275;28;20028;-59
2023/06/24 08:24:54;;;;;;;5.75;3.88;;;28.70;99.90;;;;;;5073969;28;20025;-70
2023/06/24 08:27:20;;;;;;;15.07;5.20;;;28.60;99.90;;;;;;5072923;28;20021;-72
2023/06/24 08:29:45;;;;;;;5.22;4.28;;;28.50;99.90;;;;;;5059717;28;20064;-61
2023/06/24 08:32:11;;;;;;;5.97;4.18;;;28.60;99.90;;;;;;5075067;28;20024;-57
2023/06/24 08:34:37;;;;;;;19.73;4.20;;;28.70;99.90;;;;;;5074277;28;20116;-68
2023/06/24 08:37:03;;;;;;;7.75;4.57;;;28.90;99.90;;;;;;5074956;28;20448;-69
2023/06/24 08:39:29;;;;;;;13.25;4.95;;;29.00;99.90;;;;;;5073956;28;20039;-64
2023/06/24 08:41:54;;;;;;;7.95;4.80;;;28.60;99.90;;;;;;5075151;28;20024;-64
2023/06/24 08:44:20;;;;;;;6.50;3.80;;;28.90;99.90;;;;;;5072747;28;20032;-64
2023/06/24 08:46:47;;;;;;;9.57;4.57;;;28.90;99.90;;;;;;5073841;28;20024;-65
2023/06/24 08:49:12;;;;;;;13.25;5.50;;;29.10;99.90;;;;;;5072448;28;20107;-60
2023/06/24 08:52:07;;;;;;;8.07;4.75;;;29.10;99.90;;;;;;5074818;28;20041;-60
2023/06/24 08:54:35;;;;;;;5.93;3.92;;;29.40;99.90;;;;;;5060929;28;20111;-60
2023/06/24 08:57:10;;;;;;;4.90;4.32;;;29.40;99.90;;;;;;5060639;28;20036;-61
2023/06/24 08:59:37;;;;;;;6.78;4.13;;;29.40;99.90;;;;;;5073539;28;20107;-60
2023/06/24 09:02:28;;;;;;;5.47;3.72;;;29.30;99.90;;;;;;5072209;28;20025;-60
2023/06/24 09:04:54;;;;;;;4.85;4.22;;;29.30;99.90;;;;;;5071424;28;20058;-61
2023/06/24 09:07:30;;;;;;;7.00;4.20;;;29.40;99.90;;;;;;5103821;28;20101;-62
2023/06/24 09:09:56;;;;;;;6.78;4.15;;;29.80;99.90;;;;;;5073651;28;20054;-62
2023/06/24 09:12:24;;;;;;;64.13;9.65;;;29.60;99.90;;;;;;5071723;28;20028;-62
2023/06/24 09:14:50;;;;;;;8.88;4.68;;;29.30;99.90;;;;;;5073002;28;20032;-62
2023/06/24 09:17:16;;;;;;;9.15;4.95;;;29.10;99.90;;;;;;5071394;28;20099;-62
2023/06/24 09:19:41;;;;;;;12.23;4.68;;;29.20;99.90;;;;;;5073781;28;20024;-62
2023/06/24 09:22:17;;;;;;;6.95;4.20;;;28.90;99.90;;;;;;5070316;28;20051;-63
2023/06/24 09:24:47;;;;;;;5.20;4.70;;;28.90;99.90;;;;;;5074170;28;20033;-62
2023/06/24 09:27:14;;;;;;;7.40;5.05;;;29.00;99.90;;;;;;5072266;28;20024;-63
2023/06/24 09:29:41;;;;;;;6.03;4.85;;;29.10;99.90;;;;;;5072386;28;20490;-63
2023/06/24 09:32:07;;;;;;;7.40;4.63;;;29.00;99.90;;;;;;5070059;28;20025;-61
2023/06/24 09:34:34;;;;;;;7.10;4.60;;;29.10;99.90;;;;;;5073823;28;20032;-61
2023/06/24 09:37:00;;;;;;;4.88;4.47;;;28.80;99.90;;;;;;5071552;28;20615;-61
2023/06/24 09:39:30;;;;;;;7.22;4.32;;;29.10;99.90;;;;;;5069068;28;20386;-61
2023/06/24 09:42:03;;;;;;;5.90;4.45;;;29.80;99.90;;;;;;5073769;28;20031;-61
2023/06/24 09:44:29;;;;;;;4.95;4.38;;;30.00;99.90;;;;;;5069565;28;20024;-61
2023/06/24 09:46:56;;;;;;;4.93;4.43;;;30.00;99.90;;;;;;5073712;28;20374;-61
2023/06/24 09:49:22;;;;;;;5.57;4.55;;;30.00;99.90;;;;;;5072625;28;20039;-61
2023/06/24 09:51:49;;;;;;;5.80;4.25;;;30.20;99.90;;;;;;5071104;28;20021;-59
2023/06/24 09:54:16;;;;;;;5.03;4.30;;;30.10;99.90;;;;;;5073764;28;20029;-60
2023/06/24 09:56:53;;;;;;;4.68;4.28;;;30.20;99.90;;;;;;5072390;28;20016;-60
2023/06/24 09:59:19;;;;;;;12.45;5.28;;;30.40;99.90;;;;;;5071538;28;20033;-60
2023/06/24 10:01:47;;;;;;;7.03;4.75;;;30.40;99.90;;;;;;5072970;28;20088;-60
2023/06/24 10:04:18;;;;;;;7.47;5.20;;;30.30;99.90;;;;;;5071906;28;20111;-60
2023/06/24 10:06:45;;;;;;;5.60;5.07;;;30.60;99.90;;;;;;5070775;28;20359;-60
2023/06/24 10:09:13;;;;;;;6.30;4.47;;;30.70;99.90;;;;;;5060390;28;20029;-60
2023/06/24 10:11:39;;;;;;;7.78;5.25;;;30.90;99.90;;;;;;5073163;28;20024;-60
2023/06/24 10:14:05;;;;;;;7.35;5.72;;;30.90;99.90;;;;;;5069967;28;20020;-60
2023/06/24 10:16:31;;;;;;;7.20;5.40;;;30.50;99.90;;;;;;5097435;28;20033;-60
2023/06/24 10:19:03;;;;;;;6.25;5.65;;;30.10;99.90;;;;;;5073131;28;20035;-61
2023/06/24 10:21:54;;;;;;;6.53;4.87;;;30.00;99.90;;;;;;5070770;28;20031;-61
2023/06/24 10:24:30;;;;;;;7.13;5.50;;;30.30;99.90;;;;;;5060012;28;20485;-61
2023/06/24 10:27:04;;;;;;;6.60;5.10;;;30.20;99.90;;;;;;5067285;28;20036;-61
2023/06/24 10:29:37;;;;;;;7.63;4.82;;;30.40;99.90;;;;;;5072910;28;20067;-62
2023/06/24 10:32:09;;;;;;;5.32;4.88;;;30.50;99.90;;;;;;5070285;28;20020;-61
2023/06/24 10:34:43;;;;;;;7.68;4.78;;;30.90;99.90;;;;;;5060067;28;20029;-61
2023/06/24 10:37:23;;;;;;;12.13;5.47;;;30.80;99.90;;;;;;5070716;28;20033;-61
2023/06/24 10:39:57;;;;;;;6.93;5.18;;;31.00;99.90;;;;;;5071616;28;20028;-61
2023/06/24 10:42:42;;;;;;;5.40;4.63;;;31.20;99.90;;;;;;5071300;28;20029;-61
2023/06/24 10:45:12;;;;;;;5.65;5.15;;;31.20;99.90;;;;;;5059308;28;20025;-61
2023/06/24 10:47:46;;;;;;;5.82;4.10;;;31.30;99.90;;;;;;5070990;28;20013;-59
2023/06/24 10:50:19;;;;;;;10.05;5.38;;;31.20;99.90;;;;;;5072621;28;20024;-60
2023/06/24 10:52:47;;;;;;;8.70;5.43;;;31.20;99.90;;;;;;5070798;28;20378;-59
2023/06/24 10:55:17;;;;;;;13.65;5.78;;;31.10;99.90;;;;;;5073041;28;20378;-60
2023/06/24 10:57:43;;;;;;;9.40;7.25;;;31.10;99.90;;;;;;5059989;28;20079;-59
2023/06/24 11:00:09;;;;;;;7.60;5.20;;;31.10;99.90;;;;;;5070730;28;20066;-59
2023/06/24 11:02:36;;;;;;;6.80;4.93;;;31.50;99.90;;;;;;5071709;28;20044;-59
2023/06/24 11:05:03;;;;;;;9.00;5.85;;;31.80;99.90;;;;;;5071096;28;20043;-59
2023/06/24 11:07:34;;;;;;;7.18;4.75;;;31.50;99.90;;;;;;5068447;28;20080;-59
2023/06/24 11:10:02;;;;;;;7.75;4.80;;;31.40;99.90;;;;;;5069565;28;20079;-59
2023/06/24 11:12:30;;;;;;;6.45;5.00;;;31.60;99.90;;;;;;5072531;28;20020;-59
2023/06/24 11:15:09;;;;;;;7.57;4.90;;;31.30;99.90;;;;;;5071978;28;20466;-62
2023/06/24 11:17:36;;;;;;;4.90;4.35;;;32.50;99.90;;;;;;5060163;28;20031;-62
2023/06/24 11:20:08;;;;;;;5.05;4.57;;;33.70;99.90;;;;;;5069618;28;20522;-63
2023/06/24 11:22:33;;;;;;;5.95;5.38;;;36.80;99.90;;;;;;5058958;28;20429;-62
2023/06/24 11:24:59;;;;;;;7.40;5.65;;;38.70;99.90;;;;;;5070383;28;20025;-63
2023/06/24 11:27:26;;;;;;;9.25;6.00;;;40.30;99.90;;;;;;5072605;28;20091;-62
2023/06/24 11:29:54;;;;;;;5.97;5.47;;;41.80;99.90;;;;;;5062432;28;20120;-62
2023/06/24 11:32:19;;;;;;;9.55;5.97;;;42.20;99.90;;;;;;5067634;28;20470;-63
2023/06/24 11:34:46;;;;;;;7.80;6.43;;;43.40;99.90;;;;;;5069394;28;20151;-62
2023/06/24 11:37:14;;;;;;;7.60;5.78;;;44.10;99.90;;;;;;5070576;28;20035;-63
2023/06/24 11:39:40;;;;;;;12.02;6.30;;;44.80;99.90;;;;;;5062730;28;20028;-63
2023/06/24 11:42:09;;;;;;;7.85;6.40;;;45.50;99.90;;;;;;5070453;28;20146;-61
2023/06/24 11:44:35;;;;;;;7.35;6.55;;;46.20;99.90;;;;;;5064048;28;20021;-61
2023/06/24 11:47:08;;;;;;;8.18;7.25;;;48.40;99.90;;;;;;5052234;28;20036;-61
2023/06/24 11:49:55;;;;;;;7.75;7.15;;;47.20;99.90;;;;;;5070558;28;20044;-62
2023/06/24 11:52:50;;;;;;;7.70;7.00;;;48.50;99.90;;;;;;5057722;28;20501;-62
2023/06/24 11:55:21;;;;;;;8.70;7.63;;;47.40;99.90;;;;;;5058184;28;20033;-62
2023/06/24 11:57:53;;;;;;;7.53;6.93;;;46.60;99.90;;;;;;5059076;28;20458;-62
2023/06/24 12:00:25;;;;;;;8.02;7.32;;;46.30;99.90;;;;;;5065003;28;20033;-63
2023/06/24 12:02:55;;;;;;;7.35;6.70;;;46.80;99.90;;;;;;5072502;28;20089;-62
2023/06/24 12:05:29;;;;;;;8.60;7.90;;;46.80;99.90;;;;;;5074686;28;20462;-62
2023/06/24 12:07:57;;;;;;;7.95;7.25;;;46.80;99.90;;;;;;5072803;28;20020;-63
2023/06/24 12:10:22;;;;;;;7.88;7.28;;;45.60;99.90;;;;;;5067093;28;20116;-62
2023/06/24 12:12:48;;;;;;;7.82;7.10;;;45.10;99.90;;;;;;5068652;28;20112;-62
2023/06/24 12:15:14;;;;;;;7.72;7.07;;;41.60;99.90;;;;;;5075494;28;20025;-63
2023/06/24 12:17:40;;;;;;;7.97;7.28;;;40.50;99.90;;;;;;5074405;28;20024;-62
2023/06/24 12:20:07;;;;;;;7.93;7.30;;;40.00;99.90;;;;;;5075471;28;20469;-62
2023/06/24 12:22:33;;;;;;;7.15;6.50;;;41.30;99.90;;;;;;5073748;28;20154;-62
2023/06/24 12:24:58;;;;;;;7.80;7.20;;;43.20;99.90;;;;;;5074306;28;20112;-62
2023/06/24 12:27:24;;;;;;;7.78;7.07;;;42.40;99.90;;;;;;5073221;28;20027;-62
2023/06/24 12:29:50;;;;;;;7.30;6.57;;;40.90;99.90;;;;;;5075067;28;20043;-62
2023/06/24 12:32:15;;;;;;;7.65;7.15;;;41.40;99.90;;;;;;5073262;28;20023;-63
2023/06/24 12:34:41;;;;;;;7.38;6.78;;;41.10;99.90;;;;;;5075161;28;20056;-63
2023/06/24 12:37:06;;;;;;;7.65;7.05;;;39.70;99.90;;;;;;5073589;28;20108;-63
2023/06/24 12:39:32;;;;;;;7.32;6.78;;;39.20;99.90;;;;;;5074550;28;20116;-63
2023/06/24 12:41:58;;;;;;;7.32;6.72;;;39.50;99.90;;;;;;5070761;28;20013;-63
2023/06/24 12:44:23;;;;;;;7.00;6.50;;;41.40;99.90;;;;;;5055115;28;20486;-63
2023/06/24 12:46:49;;;;;;;7.10;6.50;;;42.70;99.90;;;;;;5059170;28;20032;-63
2023/06/24 12:49:15;;;;;;;6.88;6.28;;;43.40;99.90;;;;;;5060311;28;20036;-63